createdAt,value
2019-01-03T00:00:42.921Z,11
2019-01-03T00:01:44.177Z,11
2019-01-03T00:02:45.484Z,10.9
2019-01-03T00:03:46.745Z,10.9
2019-01-03T00:04:48.005Z,10.9
2019-01-03T00:05:49.260Z,10.7
2019-01-03T00:06:50.631Z,10.7
2019-01-03T00:07:51.932Z,10.6
2019-01-03T00:08:53.281Z,10.6
2019-01-03T00:09:54.532Z,10.6
2019-01-03T00:10:55.949Z,10.5
2019-01-03T00:11:57.280Z,10.3
2019-01-03T00:12:58.639Z,10.4
2019-01-03T00:13:59.952Z,10.3
2019-01-03T00:15:02.889Z,10.3
2019-01-03T00:16:04.380Z,10.2
2019-01-03T00:17:05.621Z,10.1
2019-01-03T00:18:06.966Z,10.2
2019-01-03T00:19:08.213Z,10.2
2019-01-03T00:20:09.501Z,10.1
2019-01-03T00:21:10.981Z,10.1
2019-01-03T00:22:14.717Z,10
2019-01-03T00:23:18.732Z,9.9
2019-01-03T00:24:22.999Z,10
2019-01-03T00:25:24.907Z,10
2019-01-03T00:26:31.607Z,10
2019-01-03T00:27:40.059Z,9.9
2019-01-03T00:28:41.606Z,9.9
2019-01-03T00:29:43.113Z,9.9
2019-01-03T00:30:44.767Z,9.8
2019-01-03T00:31:46.018Z,9.8
2019-01-03T00:32:47.279Z,9.7
2019-01-03T00:33:48.559Z,9.5
2019-01-03T00:34:52.215Z,9.6
2019-01-03T00:35:53.821Z,9.6
2019-01-03T00:36:55.066Z,9.6
2019-01-03T00:37:56.319Z,9.5
2019-01-03T00:38:57.611Z,9.5
2019-01-03T00:39:58.877Z,9.5
2019-01-03T00:41:00.140Z,9.5
2019-01-03T00:42:01.381Z,9.4
2019-01-03T00:43:02.636Z,9.4
2019-01-03T00:44:03.943Z,9.4
2019-01-03T00:45:05.190Z,9.3
2019-01-03T00:46:06.473Z,9.3
2019-01-03T00:47:08.976Z,9.2
2019-01-03T00:48:10.219Z,9.2
2019-01-03T00:49:11.627Z,9.1
2019-01-03T00:50:13.147Z,8.9
2019-01-03T00:51:14.631Z,8.9
2019-01-03T00:52:18.401Z,8.8
2019-01-03T00:53:19.636Z,8.9
2019-01-03T00:54:21.197Z,8.9
2019-01-03T00:55:22.819Z,8.8
2019-01-03T00:56:24.654Z,8.8
2019-01-03T00:57:25.905Z,8.7
2019-01-03T00:58:27.136Z,8.6
2019-01-03T00:59:28.463Z,8.6
2019-01-03T01:00:29.711Z,8.7
2019-01-03T01:01:30.951Z,8.7
2019-01-03T01:02:32.193Z,8.6
2019-01-03T01:03:33.427Z,8.5
2019-01-03T01:04:36.940Z,8.6
2019-01-03T01:05:38.188Z,8.5
2019-01-03T01:06:39.443Z,8.6
2019-01-03T01:07:40.734Z,8.7
2019-01-03T01:08:41.990Z,8.5
2019-01-03T01:09:43.535Z,8.5
2019-01-03T01:10:44.884Z,8.5
2019-01-03T01:11:46.139Z,8.5
2019-01-03T01:12:47.448Z,8.4
2019-01-03T01:13:49.532Z,8.4
2019-01-03T01:14:50.984Z,8.4
2019-01-03T01:15:52.273Z,8.5
2019-01-03T01:16:53.555Z,8.5
2019-01-03T01:17:54.822Z,8.4
2019-01-03T01:18:56.087Z,8.4
2019-01-03T01:19:57.364Z,8.4
2019-01-03T01:20:58.624Z,8.3
2019-01-03T01:21:59.884Z,8.4
2019-01-03T01:23:01.149Z,8.3
2019-01-03T01:24:02.429Z,8.3
2019-01-03T01:25:03.712Z,8.2
2019-01-03T01:26:04.951Z,8.2
2019-01-03T01:27:06.188Z,8.2
2019-01-03T01:28:07.442Z,8.2
2019-01-03T01:29:08.714Z,8.2
2019-01-03T01:30:10.004Z,8.1
2019-01-03T01:31:11.244Z,8.1
2019-01-03T01:32:12.509Z,8
2019-01-03T01:33:13.818Z,8
2019-01-03T01:34:15.075Z,8.1
2019-01-03T01:35:16.352Z,8
2019-01-03T01:36:17.600Z,7.9
2019-01-03T01:37:21.401Z,7.9
2019-01-03T01:38:24.938Z,7.9
2019-01-03T01:39:26.182Z,8
2019-01-03T01:40:27.727Z,7.8
2019-01-03T01:41:28.955Z,7.8
2019-01-03T01:42:30.226Z,7.8
2019-01-03T01:43:31.642Z,7.9
2019-01-03T01:44:32.884Z,7.9
2019-01-03T01:45:34.174Z,7.9
2019-01-03T01:46:35.456Z,7.7
2019-01-03T01:47:36.739Z,7.7
2019-01-03T01:48:38.088Z,7.7
2019-01-03T01:49:39.334Z,7.6
2019-01-03T01:50:40.621Z,7.7
2019-01-03T01:51:41.860Z,7.7
2019-01-03T01:52:43.785Z,7.8
2019-01-03T01:53:45.029Z,7.6
2019-01-03T01:54:48.521Z,7.5
2019-01-03T01:55:52.253Z,7.5
2019-01-03T01:56:53.528Z,7.5
2019-01-03T01:57:56.939Z,7.5
2019-01-03T01:59:00.571Z,7.5
2019-01-03T02:00:04.299Z,7.4
2019-01-03T02:01:05.577Z,7.5
2019-01-03T02:02:06.828Z,7.4
2019-01-03T02:03:08.098Z,7.4
2019-01-03T02:04:09.412Z,7.4
2019-01-03T02:05:10.679Z,7.4
2019-01-03T02:06:13.597Z,7.4
2019-01-03T02:07:14.855Z,7.4
2019-01-03T02:08:16.134Z,7.4
2019-01-03T02:09:17.387Z,7.3
2019-01-03T02:10:18.631Z,7.3
2019-01-03T02:11:19.923Z,7.3
2019-01-03T02:12:23.697Z,7.4
2019-01-03T02:13:25.279Z,7.3
2019-01-03T02:14:27.764Z,7.4
2019-01-03T02:15:29.007Z,7.3
2019-01-03T02:16:30.309Z,7.2
2019-01-03T02:17:32.804Z,7.2
2019-01-03T02:18:36.733Z,7.1
2019-01-03T02:19:38.008Z,7
2019-01-03T02:20:39.288Z,7.1
2019-01-03T02:21:40.584Z,7.1
2019-01-03T02:22:44.053Z,7.1
2019-01-03T02:23:45.308Z,7.1
2019-01-03T02:24:46.535Z,7.2
2019-01-03T02:25:47.811Z,7.2
2019-01-03T02:26:51.725Z,7.2
2019-01-03T02:27:52.984Z,7.1
2019-01-03T02:28:54.226Z,7.1
2019-01-03T02:29:55.479Z,7.1
2019-01-03T02:30:56.788Z,7
2019-01-03T02:31:58.076Z,7.1
2019-01-03T02:32:59.329Z,7
2019-01-03T02:34:00.791Z,7
2019-01-03T02:35:02.064Z,7
2019-01-03T02:36:03.352Z,7
2019-01-03T02:37:04.637Z,6.9
2019-01-03T02:38:06.248Z,6.9
2019-01-03T02:39:07.500Z,6.9
2019-01-03T02:40:08.761Z,7
2019-01-03T02:41:10.004Z,6.9
2019-01-03T02:42:11.348Z,6.8
2019-01-03T02:43:12.632Z,6.8
2019-01-03T02:44:13.866Z,6.9
2019-01-03T02:45:15.320Z,6.9
2019-01-03T02:46:16.845Z,6.9
2019-01-03T02:47:18.300Z,6.9
2019-01-03T02:48:19.549Z,6.9
2019-01-03T02:49:20.799Z,6.8
2019-01-03T02:50:22.595Z,6.9
2019-01-03T02:51:23.965Z,6.8
2019-01-03T02:52:25.256Z,6.7
2019-01-03T02:53:26.494Z,6.8
2019-01-03T02:54:27.744Z,6.8
2019-01-03T02:55:28.984Z,6.8
2019-01-03T02:56:30.309Z,6.8
2019-01-03T02:57:31.609Z,6.8
2019-01-03T02:58:32.862Z,6.7
2019-01-03T02:59:34.107Z,6.7
2019-01-03T03:00:35.359Z,6.7
2019-01-03T03:01:36.610Z,6.8
2019-01-03T03:02:37.881Z,6.8
2019-01-03T03:03:39.129Z,6.7
2019-01-03T03:04:40.387Z,6.8
2019-01-03T03:05:41.622Z,6.8
2019-01-03T03:06:42.855Z,6.8
2019-01-03T03:07:44.131Z,6.7
2019-01-03T03:08:45.376Z,6.7
2019-01-03T03:09:46.619Z,6.7
2019-01-03T03:10:47.864Z,6.6
2019-01-03T03:11:49.091Z,6.6
2019-01-03T03:12:50.381Z,6.6
2019-01-03T03:13:51.637Z,6.5
2019-01-03T03:14:52.911Z,6.5
2019-01-03T03:15:54.171Z,6.5
2019-01-03T03:16:55.473Z,6.5
2019-01-03T03:17:56.794Z,6.5
2019-01-03T03:18:58.053Z,6.5
2019-01-03T03:19:59.313Z,6.5
2019-01-03T03:21:00.560Z,6.4
2019-01-03T03:22:01.812Z,6.5
2019-01-03T03:23:03.083Z,6.5
2019-01-03T03:24:04.339Z,6.4
2019-01-03T03:25:05.591Z,6.4
2019-01-03T03:26:06.832Z,6.4
2019-01-03T03:27:08.086Z,6.4
2019-01-03T03:28:09.387Z,6.4
2019-01-03T03:29:10.700Z,6.4
2019-01-03T03:30:11.934Z,6.4
2019-01-03T03:31:13.197Z,6.3
2019-01-03T03:32:14.472Z,6.3
2019-01-03T03:33:15.751Z,6.3
2019-01-03T03:34:16.980Z,6.3
2019-01-03T03:35:18.320Z,6.3
2019-01-03T03:36:19.571Z,6.3
2019-01-03T03:37:20.831Z,6.3
2019-01-03T03:38:22.115Z,6.2
2019-01-03T03:39:23.456Z,6.2
2019-01-03T03:40:24.701Z,6.2
2019-01-03T03:41:26.343Z,6.3
2019-01-03T03:42:27.600Z,6.3
2019-01-03T03:43:28.890Z,6.2
2019-01-03T03:44:30.373Z,6.2
2019-01-03T03:45:34.725Z,6.2
2019-01-03T03:46:35.987Z,6.2
2019-01-03T03:47:37.236Z,6.2
2019-01-03T03:48:38.541Z,6.2
2019-01-03T03:49:39.782Z,6.2
2019-01-03T03:50:41.009Z,6.2
2019-01-03T03:51:42.281Z,6.2
2019-01-03T03:52:43.951Z,6.2
2019-01-03T03:53:45.638Z,6.2
2019-01-03T03:54:46.881Z,6.2
2019-01-03T03:55:48.155Z,6.2
2019-01-03T03:56:49.411Z,6.1
2019-01-03T03:57:50.650Z,6.1
2019-01-03T03:58:51.940Z,6.1
2019-01-03T03:59:53.262Z,6.1
2019-01-03T04:00:54.532Z,6.1
2019-01-03T04:01:55.790Z,6.1
2019-01-03T04:02:57.314Z,6.1
2019-01-03T04:03:58.583Z,6.1
2019-01-03T04:04:59.848Z,6.1
2019-01-03T04:06:01.128Z,6
2019-01-03T04:07:02.398Z,6
2019-01-03T04:08:03.994Z,6
2019-01-03T04:09:05.273Z,6
2019-01-03T04:10:06.535Z,6
2019-01-03T04:11:07.775Z,6.1
2019-01-03T04:12:09.035Z,6.1
2019-01-03T04:13:10.292Z,6.1
2019-01-03T04:14:11.609Z,6
2019-01-03T04:15:12.888Z,6
2019-01-03T04:16:14.193Z,5.9
2019-01-03T04:17:15.455Z,5.9
2019-01-03T04:18:16.727Z,5.9
2019-01-03T04:19:18.009Z,5.9
2019-01-03T04:20:19.269Z,6
2019-01-03T04:21:20.499Z,5.9
2019-01-03T04:22:21.755Z,5.9
2019-01-03T04:23:23.020Z,5.8
2019-01-03T04:24:24.307Z,5.9
2019-01-03T04:25:25.543Z,5.9
2019-01-03T04:26:26.789Z,5.8
2019-01-03T04:27:28.075Z,5.8
2019-01-03T04:28:29.312Z,5.8
2019-01-03T04:29:30.617Z,5.8
2019-01-03T04:30:31.856Z,5.8
2019-01-03T04:31:33.116Z,5.8
2019-01-03T04:32:34.356Z,5.8
2019-01-03T04:33:35.614Z,5.8
2019-01-03T04:34:36.902Z,5.8
2019-01-03T04:35:38.661Z,5.8
2019-01-03T04:36:39.901Z,5.8
2019-01-03T04:37:41.206Z,5.8
2019-01-03T04:38:42.473Z,5.8
2019-01-03T04:39:43.788Z,5.8
2019-01-03T04:40:45.033Z,5.8
2019-01-03T04:41:46.297Z,5.8
2019-01-03T04:42:47.583Z,5.8
2019-01-03T04:43:48.831Z,5.8
2019-01-03T04:44:50.329Z,5.8
2019-01-03T04:45:51.587Z,5.8
2019-01-03T04:46:53.156Z,5.7
2019-01-03T04:47:54.419Z,5.7
2019-01-03T04:48:55.673Z,5.7
2019-01-03T04:49:56.960Z,5.7
2019-01-03T04:50:58.375Z,5.6
2019-01-03T04:51:59.631Z,5.6
2019-01-03T04:53:00.909Z,5.6
2019-01-03T04:54:02.200Z,5.6
2019-01-03T04:55:03.481Z,5.7
2019-01-03T04:56:04.753Z,5.7
2019-01-03T04:57:06.008Z,5.7
2019-01-03T04:58:07.289Z,5.6
2019-01-03T04:59:08.527Z,5.7
2019-01-03T05:00:09.816Z,5.7
2019-01-03T05:01:11.077Z,5.6
2019-01-03T05:02:12.335Z,5.6
2019-01-03T05:03:13.592Z,5.6
2019-01-03T05:04:14.831Z,5.6
2019-01-03T05:05:16.118Z,5.6
2019-01-03T05:06:18.284Z,5.6
2019-01-03T05:07:19.952Z,5.5
2019-01-03T05:08:21.204Z,5.6
2019-01-03T05:09:22.440Z,5.6
2019-01-03T05:10:23.725Z,5.6
2019-01-03T05:11:25.931Z,5.6
2019-01-03T05:12:27.167Z,5.6
2019-01-03T05:13:28.412Z,5.6
2019-01-03T05:14:29.660Z,5.6
2019-01-03T05:15:30.944Z,5.6
2019-01-03T05:16:32.209Z,5.6
2019-01-03T05:17:33.451Z,5.6
2019-01-03T05:18:34.730Z,5.6
2019-01-03T05:19:35.982Z,5.5
2019-01-03T05:20:37.253Z,5.5
2019-01-03T05:21:38.499Z,5.6
2019-01-03T05:22:39.731Z,5.6
2019-01-03T05:23:40.995Z,5.5
2019-01-03T05:24:42.228Z,5.5
2019-01-03T05:25:43.510Z,5.4
2019-01-03T05:26:44.749Z,5.5
2019-01-03T05:27:45.999Z,5.5
2019-01-03T05:28:47.243Z,5.5
2019-01-03T05:29:48.503Z,5.5
2019-01-03T05:30:49.811Z,5.5
2019-01-03T05:31:51.071Z,5.6
2019-01-03T05:32:52.321Z,5.5
2019-01-03T05:33:53.574Z,5.6
2019-01-03T05:34:54.819Z,5.6
2019-01-03T05:35:56.099Z,5.6
2019-01-03T05:36:57.353Z,5.5
2019-01-03T05:37:58.622Z,5.4
2019-01-03T05:38:59.855Z,5.4
2019-01-03T05:40:01.124Z,5.4
2019-01-03T05:41:02.653Z,5.5
2019-01-03T05:42:05.927Z,5.4
2019-01-03T05:43:07.174Z,5.4
2019-01-03T05:44:08.429Z,5.4
2019-01-03T05:45:09.692Z,5.4
2019-01-03T05:46:10.969Z,5.4
2019-01-03T05:47:12.231Z,5.4
2019-01-03T05:48:13.482Z,5.3
2019-01-03T05:49:14.724Z,5.4
2019-01-03T05:50:16.284Z,5.4
2019-01-03T05:51:18.567Z,5.4
2019-01-03T05:52:19.874Z,5.4
2019-01-03T05:53:21.929Z,5.4
2019-01-03T05:54:23.305Z,5.4
2019-01-03T05:55:24.571Z,5.3
2019-01-03T05:56:25.887Z,5.4
2019-01-03T05:57:27.152Z,5.3
2019-01-03T05:58:28.416Z,5.3
2019-01-03T05:59:29.764Z,5.2
2019-01-03T06:00:31.016Z,5.2
2019-01-03T06:01:32.356Z,5.2
2019-01-03T06:02:33.615Z,5.2
2019-01-03T06:03:34.868Z,5.2
2019-01-03T06:04:36.118Z,5.2
2019-01-03T06:05:37.388Z,5.2
2019-01-03T06:06:38.692Z,5.3
2019-01-03T06:07:40.415Z,5.3
2019-01-03T06:08:41.716Z,5.3
2019-01-03T06:09:43.012Z,5.3
2019-01-03T06:10:44.262Z,5.3
2019-01-03T06:11:45.543Z,5.3
2019-01-03T06:12:46.821Z,5.2
2019-01-03T06:13:48.080Z,5.2
2019-01-03T06:14:49.612Z,5.2
2019-01-03T06:15:50.860Z,5.2
2019-01-03T06:16:52.399Z,5.3
2019-01-03T06:17:55.983Z,5.3
2019-01-03T06:18:57.295Z,5.3
2019-01-03T06:19:58.610Z,5.2
2019-01-03T06:20:59.866Z,5.2
2019-01-03T06:22:01.158Z,5.3
2019-01-03T06:23:02.575Z,5.3
2019-01-03T06:24:03.832Z,5.3
2019-01-03T06:25:05.090Z,5.3
2019-01-03T06:26:06.343Z,5.3
2019-01-03T06:27:07.631Z,5.4
2019-01-03T06:28:08.872Z,5.3
2019-01-03T06:29:10.139Z,5.3
2019-01-03T06:30:11.409Z,5.2
2019-01-03T06:31:12.676Z,5.2
2019-01-03T06:32:13.952Z,5.3
2019-01-03T06:33:15.216Z,5.3
2019-01-03T06:34:16.473Z,5.3
2019-01-03T06:35:18.213Z,5.3
2019-01-03T06:36:19.746Z,5.4
2019-01-03T06:37:21.048Z,5.4
2019-01-03T06:38:22.309Z,5.3
2019-01-03T06:39:23.568Z,5.3
2019-01-03T06:40:24.797Z,5.3
2019-01-03T06:41:26.103Z,5.3
2019-01-03T06:42:27.392Z,5.3
2019-01-03T06:43:28.625Z,5.3
2019-01-03T06:44:29.895Z,5.3
2019-01-03T06:45:33.388Z,5.3
2019-01-03T06:46:34.624Z,5.3
2019-01-03T06:47:35.964Z,5.4
2019-01-03T06:48:37.237Z,5.4
2019-01-03T06:49:38.489Z,5.4
2019-01-03T06:50:39.738Z,5.4
2019-01-03T06:51:43.942Z,5.4
2019-01-03T06:52:45.259Z,5.4
2019-01-03T06:53:46.507Z,5.4
2019-01-03T06:54:47.767Z,5.5
2019-01-03T06:55:49.003Z,5.5
2019-01-03T06:56:50.256Z,5.5
2019-01-03T06:57:51.524Z,5.5
2019-01-03T06:58:52.781Z,5.6
2019-01-03T06:59:54.020Z,5.5
2019-01-03T07:00:55.277Z,5.6
2019-01-03T07:01:56.537Z,5.6
2019-01-03T07:02:57.843Z,5.6
2019-01-03T07:03:59.325Z,5.6
2019-01-03T07:05:00.620Z,5.6
2019-01-03T07:06:01.899Z,5.6
2019-01-03T07:07:03.172Z,5.6
2019-01-03T07:08:04.452Z,5.6
2019-01-03T07:09:05.712Z,5.6
2019-01-03T07:10:06.969Z,5.6
2019-01-03T07:11:08.224Z,5.6
2019-01-03T07:12:09.493Z,5.6
2019-01-03T07:13:12.099Z,5.5
2019-01-03T07:14:13.361Z,5.6
2019-01-03T07:15:14.607Z,5.6
2019-01-03T07:16:15.851Z,5.6
2019-01-03T07:17:17.105Z,5.6
2019-01-03T07:18:18.437Z,5.6
2019-01-03T07:19:19.689Z,6.1
2019-01-03T07:20:20.947Z,7.2
2019-01-03T07:21:27.208Z,8.1
2019-01-03T07:22:28.642Z,9.1
2019-01-03T07:23:29.931Z,9.5
2019-01-03T07:24:31.199Z,9.7
2019-01-03T07:25:32.446Z,9.9
2019-01-03T07:26:33.692Z,10.2
2019-01-03T07:27:34.938Z,10.2
2019-01-03T07:28:36.243Z,10.3
2019-01-03T07:29:37.517Z,10.6
2019-01-03T07:30:38.834Z,10.6
2019-01-03T07:31:40.313Z,10.4
2019-01-03T07:32:41.588Z,10.6
2019-01-03T07:33:42.892Z,10.9
2019-01-03T07:34:44.171Z,10.9
2019-01-03T07:35:48.568Z,11.3
2019-01-03T07:36:49.824Z,11.1
2019-01-03T07:37:51.079Z,11.2
2019-01-03T07:38:52.355Z,11.3
2019-01-03T07:39:53.613Z,11.4
2019-01-03T07:40:54.890Z,11.5
2019-01-03T07:41:56.143Z,11.7
2019-01-03T07:42:57.402Z,11.7
2019-01-03T07:43:58.687Z,11.6
2019-01-03T07:45:00.219Z,11.6
2019-01-03T07:46:04.260Z,11.9
2019-01-03T07:47:05.723Z,12.1
2019-01-03T07:48:06.986Z,12.1
2019-01-03T07:49:08.269Z,12
2019-01-03T07:50:09.910Z,11.9
2019-01-03T07:51:11.156Z,11.7
2019-01-03T07:52:12.425Z,11.7
2019-01-03T07:53:13.699Z,11.6
2019-01-03T07:54:14.991Z,11.9
2019-01-03T07:55:21.358Z,12
2019-01-03T07:56:22.636Z,11.9
2019-01-03T07:57:23.946Z,11.9
2019-01-03T07:58:27.473Z,12.1
2019-01-03T07:59:28.783Z,12.4
2019-01-03T08:00:30.372Z,12.7
2019-01-03T08:01:33.815Z,12.9
2019-01-03T08:02:35.481Z,13
2019-01-03T08:03:36.735Z,12.7
2019-01-03T08:04:38.047Z,12.5
2019-01-03T08:05:39.330Z,12.7
2019-01-03T08:06:40.579Z,12.7
2019-01-03T08:07:41.856Z,12.8
2019-01-03T08:08:43.103Z,13
2019-01-03T08:09:44.395Z,12.7
2019-01-03T08:10:45.668Z,13
2019-01-03T08:11:46.923Z,12.8
2019-01-03T08:12:48.173Z,13.1
2019-01-03T08:13:49.439Z,13
2019-01-03T08:14:50.746Z,13
2019-01-03T08:15:52.016Z,12.9
2019-01-03T08:16:53.287Z,13
2019-01-03T08:17:54.571Z,13
2019-01-03T08:18:55.820Z,13
2019-01-03T08:19:57.123Z,13.1
2019-01-03T08:20:58.381Z,13.2
2019-01-03T08:21:59.787Z,13.1
2019-01-03T08:23:03.912Z,13.3
2019-01-03T08:24:05.187Z,13.1
2019-01-03T08:25:06.464Z,13.1
2019-01-03T08:26:07.731Z,13.3
2019-01-03T08:27:09.018Z,13.5
2019-01-03T08:28:10.284Z,13.2
2019-01-03T08:29:12.788Z,13.2
2019-01-03T08:30:14.095Z,13.4
2019-01-03T08:31:15.360Z,13.4
2019-01-03T08:32:16.618Z,13.5
2019-01-03T08:33:19.204Z,13.5
2019-01-03T08:34:20.460Z,13.5
2019-01-03T08:35:22.419Z,13.6
2019-01-03T08:36:25.234Z,13.4
2019-01-03T08:37:26.712Z,13.4
2019-01-03T08:38:27.945Z,13.4
2019-01-03T08:39:29.279Z,13.6
2019-01-03T08:40:30.791Z,13.7
2019-01-03T08:41:32.458Z,13.7
2019-01-03T08:42:34.108Z,13.8
2019-01-03T08:43:36.399Z,13.9
2019-01-03T08:44:39.954Z,13.9
2019-01-03T08:45:41.283Z,13.8
2019-01-03T08:46:42.550Z,13.8
2019-01-03T08:47:43.922Z,13.8
2019-01-03T08:48:45.259Z,13.9
2019-01-03T08:49:49.308Z,13.8
2019-01-03T08:50:50.874Z,13.7
2019-01-03T08:51:52.140Z,13.7
2019-01-03T08:52:53.414Z,13.7
2019-01-03T08:53:54.667Z,13.7
2019-01-03T08:54:56.121Z,13.8
2019-01-03T08:55:57.452Z,14.1
2019-01-03T08:56:58.699Z,13.9
2019-01-03T08:57:59.986Z,13.9
2019-01-03T08:59:01.281Z,14.1
2019-01-03T09:00:02.566Z,14.3
2019-01-03T09:01:03.889Z,14.3
2019-01-03T09:02:08.167Z,14.3
2019-01-03T09:03:09.456Z,14.2
2019-01-03T09:04:10.765Z,14.4
2019-01-03T09:05:12.256Z,14.3
2019-01-03T09:06:13.825Z,14.3
2019-01-03T09:07:15.142Z,14.3
2019-01-03T09:08:19.729Z,14.3
2019-01-03T09:09:21.020Z,14.1
2019-01-03T09:10:22.412Z,14.1
2019-01-03T09:11:23.802Z,14.4
2019-01-03T09:12:25.075Z,14.5
2019-01-03T09:13:28.239Z,14.5
2019-01-03T09:14:32.260Z,14.4
2019-01-03T09:15:33.522Z,14.4
2019-01-03T09:16:34.845Z,14.3
2019-01-03T09:17:37.839Z,14.3
2019-01-03T09:18:39.115Z,14.3
2019-01-03T09:19:43.408Z,14.3
2019-01-03T09:20:44.671Z,14.5
2019-01-03T09:21:45.988Z,14.5
2019-01-03T09:22:47.252Z,14.6
2019-01-03T09:23:48.766Z,14.6
2019-01-03T09:24:50.068Z,14.7
2019-01-03T09:25:51.694Z,14.5
2019-01-03T09:26:54.842Z,14.3
2019-01-03T09:27:56.982Z,14.5
2019-01-03T09:28:58.308Z,14.5
2019-01-03T09:30:05.437Z,14.7
2019-01-03T09:31:06.705Z,14.8
2019-01-03T09:32:09.670Z,14.8
2019-01-03T09:33:11.226Z,14.7
2019-01-03T09:34:16.965Z,14.6
2019-01-03T09:35:18.305Z,14.8
2019-01-03T09:37:35.419Z,14.9
2019-01-03T09:38:37.025Z,14.9
2019-01-03T09:39:38.393Z,15.1
2019-01-03T09:40:41.802Z,15.2
2019-01-03T09:41:43.132Z,15.4
2019-01-03T09:42:44.478Z,15.4
2019-01-03T09:43:46.178Z,15.4
2019-01-03T09:44:47.477Z,15.4
2019-01-03T09:45:48.765Z,15.4
2019-01-03T09:46:50.043Z,15.2
2019-01-03T09:47:54.147Z,15.3
2019-01-03T09:48:55.485Z,15.2
2019-01-03T09:49:56.805Z,15.2
2019-01-03T09:51:01.018Z,15.2
2019-01-03T09:52:02.379Z,15.2
2019-01-03T09:53:03.733Z,15.2
2019-01-03T09:54:05.053Z,15.2
2019-01-03T09:55:06.373Z,15.3
2019-01-03T09:56:07.683Z,15.3
2019-01-03T09:57:08.994Z,15.4
2019-01-03T09:58:10.310Z,15.5
2019-01-03T09:59:13.681Z,15.7
2019-01-03T10:00:14.996Z,15.6
2019-01-03T10:01:16.300Z,15.7
2019-01-03T10:02:17.601Z,15.7
2019-01-03T10:03:20.296Z,15.9
2019-01-03T10:04:21.598Z,15.8
2019-01-03T10:05:22.873Z,15.6
2019-01-03T10:06:24.188Z,15.8
2019-01-03T10:07:26.739Z,15.8
2019-01-03T10:08:28.253Z,15.8
2019-01-03T10:09:36.616Z,15.8
2019-01-03T10:10:40.008Z,15.9
2019-01-03T10:11:41.542Z,15.7
2019-01-03T10:12:42.888Z,15.6
2019-01-03T10:13:44.281Z,15.4
2019-01-03T10:14:46.180Z,15.7
2019-01-03T10:15:47.480Z,15.7
2019-01-03T10:16:48.787Z,15.7
2019-01-03T10:17:50.082Z,15.6
2019-01-03T10:18:51.434Z,15.7
2019-01-03T10:19:55.146Z,15.8
2019-01-03T10:20:56.477Z,15.8
2019-01-03T10:21:57.786Z,15.9
2019-01-03T10:23:01.757Z,15.9
2019-01-03T10:24:04.747Z,15.8
2019-01-03T10:25:06.395Z,15.8
2019-01-03T10:26:07.687Z,15.7
2019-01-03T10:27:09.305Z,15.8
2019-01-03T10:28:10.605Z,15.8
2019-01-03T10:29:11.960Z,15.9
2019-01-03T10:30:14.075Z,16.1
2019-01-03T10:31:15.426Z,15.9
2019-01-03T10:32:18.404Z,15.9
2019-01-03T10:33:20.350Z,15.9
2019-01-03T10:34:23.745Z,15.9
2019-01-03T10:35:25.089Z,15.8
2019-01-03T10:36:27.457Z,15.8
2019-01-03T10:37:29.301Z,16
2019-01-03T10:38:34.841Z,16.1
2019-01-03T10:39:36.365Z,16.1
2019-01-03T10:40:37.652Z,15.9
2019-01-03T10:41:38.993Z,15.9
2019-01-03T10:42:41.153Z,15.9
2019-01-03T10:43:42.516Z,15.9
2019-01-03T10:44:46.926Z,15.9
2019-01-03T10:45:50.979Z,16
2019-01-03T10:46:54.654Z,16.1
2019-01-03T10:47:55.962Z,16.1
2019-01-03T10:48:57.324Z,16.1
2019-01-03T10:49:58.677Z,16.2
2019-01-03T10:51:05.619Z,16.1
2019-01-03T10:52:09.361Z,16.2
2019-01-03T10:53:10.706Z,16.2
2019-01-03T10:54:12.013Z,16.2
2019-01-03T10:55:13.345Z,16
2019-01-03T10:56:14.665Z,16
2019-01-03T10:57:16.323Z,16.1
2019-01-03T10:58:17.686Z,16.1
2019-01-03T10:59:19.232Z,16.2
2019-01-03T11:00:20.610Z,16
2019-01-03T11:01:22.132Z,16
2019-01-03T11:02:24.049Z,16
2019-01-03T11:03:25.397Z,16.1
2019-01-03T11:04:26.809Z,16.1
2019-01-03T11:05:28.740Z,16.2
2019-01-03T11:06:35.230Z,16.3
2019-01-03T11:07:36.535Z,16.4
2019-01-03T11:08:41.243Z,16.3
2019-01-03T11:09:43.940Z,16.4
2019-01-03T11:10:45.316Z,16.3
2019-01-03T11:11:47.764Z,16.2
2019-01-03T11:12:49.077Z,16.5
2019-01-03T11:13:50.573Z,16.6
2019-01-03T11:14:51.880Z,16.6
2019-01-03T11:15:55.469Z,16.6
2019-01-03T11:16:57.160Z,16.5
2019-01-03T11:18:04.509Z,16.4
2019-01-03T11:19:05.873Z,16.5
2019-01-03T11:20:07.212Z,16.5
2019-01-03T11:21:09.068Z,16.7
2019-01-03T11:22:10.388Z,16.8
2019-01-03T11:23:16.205Z,16.9
2019-01-03T11:24:17.586Z,16.9
2019-01-03T11:25:19.365Z,16.9
2019-01-03T11:26:20.698Z,16.9
2019-01-03T11:27:22.040Z,17
2019-01-03T11:28:23.402Z,17.1
2019-01-03T11:29:24.760Z,17.2
2019-01-03T11:30:26.537Z,17.2
2019-01-03T11:31:27.873Z,17.3
2019-01-03T11:32:29.185Z,17.3
2019-01-03T11:33:30.490Z,17.4
2019-01-03T11:34:31.793Z,17.4
2019-01-03T11:35:33.504Z,17.4
2019-01-03T11:36:39.071Z,17.4
2019-01-03T11:37:40.404Z,17.4
2019-01-03T11:38:41.689Z,17.3
2019-01-03T11:39:42.988Z,17.3
2019-01-03T11:40:44.315Z,17.2
2019-01-03T11:41:45.668Z,17.2
2019-01-03T11:42:49.165Z,17.1
2019-01-03T11:43:50.518Z,17
2019-01-03T11:44:51.867Z,16.9
2019-01-03T11:45:55.482Z,16.7
2019-01-03T11:46:58.313Z,17
2019-01-03T11:48:02.413Z,17.3
2019-01-03T11:49:03.713Z,17.4
2019-01-03T11:50:05.304Z,17.5
2019-01-03T11:51:09.145Z,17.5
2019-01-03T11:52:10.710Z,17.6
2019-01-03T11:53:12.179Z,17.6
2019-01-03T11:54:14.805Z,17.6
2019-01-03T11:55:16.127Z,17.8
2019-01-03T11:56:17.452Z,18
2019-01-03T11:57:18.865Z,17.9
2019-01-03T11:58:20.302Z,17.9
2019-01-03T11:59:24.497Z,17.9
2019-01-03T12:00:25.827Z,17.9
2019-01-03T12:01:29.987Z,17.9
2019-01-03T12:02:31.467Z,18
2019-01-03T12:03:32.800Z,17.9
2019-01-03T12:04:34.367Z,18
2019-01-03T12:05:37.960Z,18
2019-01-03T12:06:39.348Z,18.1
2019-01-03T12:07:43.683Z,18.1
2019-01-03T12:08:45.329Z,18.1
2019-01-03T12:09:47.061Z,18.1
2019-01-03T12:10:51.123Z,18.2
2019-01-03T12:11:52.473Z,18.3
2019-01-03T12:12:54.002Z,18.4
2019-01-03T12:13:55.652Z,18.4
2019-01-03T12:14:59.721Z,18.5
2019-01-03T12:16:01.031Z,18.5
2019-01-03T12:17:02.358Z,18.4
2019-01-03T12:18:05.717Z,18.4
2019-01-03T12:19:10.025Z,18.5
2019-01-03T12:20:11.371Z,18.5
2019-01-03T12:21:12.707Z,18.6
2019-01-03T12:22:14.057Z,18.6
2019-01-03T12:23:15.452Z,18.6
2019-01-03T12:24:16.828Z,18.6
2019-01-03T12:25:18.484Z,18.7
2019-01-03T12:26:19.798Z,18.6
2019-01-03T12:27:23.936Z,18.6
2019-01-03T12:28:25.637Z,18.6
2019-01-03T12:29:26.936Z,18.7
2019-01-03T12:30:30.442Z,18.8
2019-01-03T12:31:36.013Z,18.8
2019-01-03T12:32:37.348Z,18.8
2019-01-03T12:33:39.056Z,18.8
2019-01-03T12:34:40.438Z,18.8
2019-01-03T12:35:41.837Z,18.8
2019-01-03T12:36:43.321Z,18.9
2019-01-03T12:37:46.390Z,18.9
2019-01-03T12:38:47.816Z,18.9
2019-01-03T12:39:49.775Z,19
2019-01-03T12:40:51.142Z,19
2019-01-03T12:41:52.459Z,19
2019-01-03T12:42:54.616Z,19
2019-01-03T12:43:56.416Z,19
2019-01-03T12:44:57.838Z,19
2019-01-03T12:45:59.336Z,19
2019-01-03T12:47:00.655Z,19.1
2019-01-03T12:48:02.043Z,19.1
2019-01-03T12:49:03.423Z,19.1
2019-01-03T12:50:04.983Z,19
2019-01-03T12:51:06.313Z,19
2019-01-03T12:52:08.583Z,19.1
2019-01-03T12:53:09.891Z,19.1
2019-01-03T12:54:11.297Z,19.1
2019-01-03T12:55:17.881Z,19.2
2019-01-03T12:56:19.204Z,19.2
2019-01-03T12:57:24.218Z,19.2
2019-01-03T12:58:25.837Z,19.1
2019-01-03T12:59:29.670Z,19
2019-01-03T13:00:30.988Z,19
2019-01-03T13:01:32.293Z,19.1
2019-01-03T13:02:35.314Z,19
2019-01-03T13:03:37.353Z,18.9
2019-01-03T13:04:38.806Z,18.8
2019-01-03T13:05:42.801Z,18.9
2019-01-03T13:06:44.119Z,18.8
2019-01-03T13:07:45.473Z,18.8
2019-01-03T13:08:46.796Z,18.7
2019-01-03T13:09:51.641Z,18.7
2019-01-03T13:10:53.016Z,18.8
2019-01-03T13:11:54.306Z,19
2019-01-03T13:12:55.825Z,18.9
2019-01-03T13:13:57.170Z,19
2019-01-03T13:14:58.546Z,18.9
2019-01-03T13:15:59.883Z,19
2019-01-03T13:17:01.206Z,19
2019-01-03T13:18:03.091Z,19.1
2019-01-03T13:19:05.199Z,19.2
2019-01-03T13:20:12.881Z,19.1
2019-01-03T13:21:15.334Z,19.1
2019-01-03T13:22:16.694Z,19.2
2019-01-03T13:23:18.242Z,19.1
2019-01-03T13:24:19.557Z,19.1
2019-01-03T13:25:20.913Z,19.1
2019-01-03T13:26:22.235Z,19.2
2019-01-03T13:27:23.966Z,19.2
2019-01-03T13:28:25.293Z,19.3
2019-01-03T13:29:26.601Z,19.3
2019-01-03T13:30:28.188Z,19.3
2019-01-03T13:31:29.523Z,19.3
2019-01-03T13:32:33.169Z,19.3
2019-01-03T13:33:40.525Z,19.3
2019-01-03T13:34:41.827Z,19.3
2019-01-03T13:35:43.670Z,19.2
2019-01-03T13:36:44.961Z,19.2
2019-01-03T13:37:46.306Z,19.2
2019-01-03T13:38:47.667Z,19.2
2019-01-03T13:39:48.992Z,19.3
2019-01-03T13:40:50.357Z,19.3
2019-01-03T13:41:51.684Z,19.3
2019-01-03T13:42:53.008Z,19.4
2019-01-03T13:43:54.380Z,19.3
2019-01-03T13:44:55.981Z,19.4
2019-01-03T13:45:57.373Z,19.3
2019-01-03T13:47:01.277Z,19.3
2019-01-03T13:48:05.759Z,19.4
2019-01-03T13:49:07.637Z,19.3
2019-01-03T13:50:08.937Z,19.3
2019-01-03T13:51:10.286Z,19.4
2019-01-03T13:52:11.577Z,19.4
2019-01-03T13:53:15.322Z,19.4
2019-01-03T13:54:16.685Z,19.3
2019-01-03T13:55:18.281Z,19.3
2019-01-03T13:56:20.365Z,19.3
2019-01-03T13:57:23.185Z,19.4
2019-01-03T13:58:24.889Z,19.4
2019-01-03T13:59:26.200Z,19.4
2019-01-03T14:00:27.514Z,19.5
2019-01-03T14:01:31.251Z,19.5